sensor_id;sensor_type;location;lat;lon;timestamp;pressure;altitude;pressure_sealevel;temperature;humidity
28927;BME280;16038;47.692;9.400;2022-07-10T00:01:26;97182.44;;;14.68;100.00
28927;BME280;16038;47.692;9.400;2022-07-10T00:03:51;97174.59;;;14.70;100.00
28927;BME280;16038;47.692;9.400;2022-07-10T00:06:17;97178.16;;;14.74;100.00
28927;BME280;16038;47.692;9.400;2022-07-10T00:08:42;97166.44;;;14.88;100.00
28927;BME280;16038;47.692;9.400;2022-07-10T00:11:08;97168.09;;;15.03;100.00
28927;BME280;16038;47.692;9.400;2022-07-10T00:13:34;97169.00;;;15.18;100.00
28927;BME280;16038;47.692;9.400;2022-07-10T00:16:00;97165.13;;;15.34;100.00
28927;BME280;16038;47.692;9.400;2022-07-10T00:18:27;97162.47;;;15.55;100.00
28927;BME280;16038;47.692;9.400;2022-07-10T00:20:53;97161.44;;;15.89;100.00
28927;BME280;16038;47.692;9.400;2022-07-10T00:23:18;97165.78;;;16.04;100.00
28927;BME280;16038;47.692;9.400;2022-07-10T00:25:44;97160.28;;;16.18;100.00
28927;BME280;16038;47.692;9.400;2022-07-10T00:28:09;97156.78;;;16.36;100.00
28927;BME280;16038;47.692;9.400;2022-07-10T00:30:37;97167.06;;;16.46;100.00
28927;BME280;16038;47.692;9.400;2022-07-10T00:33:03;97167.84;;;16.54;100.00
28927;BME280;16038;47.692;9.400;2022-07-10T00:35:28;97161.53;;;16.64;100.00
28927;BME280;16038;47.692;9.400;2022-07-10T00:37:54;97169.00;;;16.53;100.00
28927;BME280;16038;47.692;9.400;2022-07-10T00:40:19;97173.75;;;16.49;100.00
28927;BME280;16038;47.692;9.400;2022-07-10T00:42:45;97189.56;;;16.44;100.00
28927;BME280;16038;47.692;9.400;2022-07-10T00:45:10;97199.84;;;16.55;100.00
28927;BME280;16038;47.692;9.400;2022-07-10T00:47:36;97193.06;;;16.20;100.00
28927;BME280;16038;47.692;9.400;2022-07-10T00:50:02;97191.47;;;16.08;100.00
28927;BME280;16038;47.692;9.400;2022-07-10T00:52:28;97180.03;;;16.17;100.00
28927;BME280;16038;47.692;9.400;2022-07-10T00:54:54;97187.06;;;15.85;100.00
28927;BME280;16038;47.692;9.400;2022-07-10T00:57:20;97198.59;;;15.28;100.00
28927;BME280;16038;47.692;9.400;2022-07-10T00:59:48;97197.19;;;15.56;100.00
28927;BME280;16038;47.692;9.400;2022-07-10T01:02:14;97190.94;;;15.74;100.00
28927;BME280;16038;47.692;9.400;2022-07-10T01:04:41;97185.09;;;15.93;100.00
28927;BME280;16038;47.692;9.400;2022-07-10T01:07:07;97181.97;;;15.95;100.00
28927;BME280;16038;47.692;9.400;2022-07-10T01:09:33;97178.44;;;16.01;100.00
28927;BME280;16038;47.692;9.400;2022-07-10T01:12:02;97175.69;;;16.12;100.00
28927;BME280;16038;47.692;9.400;2022-07-10T01:14:29;97176.88;;;16.22;100.00
28927;BME280;16038;47.692;9.400;2022-07-10T01:16:56;97180.44;;;16.15;100.00
28927;BME280;16038;47.692;9.400;2022-07-10T01:19:21;97176.88;;;16.15;100.00
28927;BME280;16038;47.692;9.400;2022-07-10T01:21:47;97170.97;;;16.27;100.00
28927;BME280;16038;47.692;9.400;2022-07-10T01:24:12;97173.75;;;16.41;100.00
28927;BME280;16038;47.692;9.400;2022-07-10T01:26:37;97165.47;;;16.45;100.00
28927;BME280;16038;47.692;9.400;2022-07-10T01:29:07;97167.03;;;16.35;100.00
28927;BME280;16038;47.692;9.400;2022-07-10T01:31:33;97173.75;;;16.52;100.00
28927;BME280;16038;47.692;9.400;2022-07-10T01:34:00;97163.91;;;16.58;100.00
28927;BME280;16038;47.692;9.400;2022-07-10T01:36:28;97160.31;;;16.65;100.00
28927;BME280;16038;47.692;9.400;2022-07-10T01:38:55;97169.81;;;16.68;100.00
28927;BME280;16038;47.692;9.400;2022-07-10T01:41:22;97178.13;;;16.75;100.00
28927;BME280;16038;47.692;9.400;2022-07-10T01:43:48;97174.97;;;16.73;100.00
28927;BME280;16038;47.692;9.400;2022-07-10T01:46:14;97170.22;;;16.66;100.00
28927;BME280;16038;47.692;9.400;2022-07-10T01:48:40;97172.19;;;16.62;100.00
28927;BME280;16038;47.692;9.400;2022-07-10T01:51:07;97174.97;;;16.58;100.00
28927;BME280;16038;47.692;9.400;2022-07-10T01:53:32;97176.91;;;16.65;100.00
28927;BME280;16038;47.692;9.400;2022-07-10T01:56:00;97171.38;;;16.58;100.00
28927;BME280;16038;47.692;9.400;2022-07-10T01:58:26;97172.19;;;16.62;100.00
28927;BME280;16038;47.692;9.400;2022-07-10T02:00:52;97168.22;;;16.52;100.00
28927;BME280;16038;47.692;9.400;2022-07-10T02:03:17;97171.78;;;16.42;100.00
28927;BME280;16038;47.692;9.400;2022-07-10T02:06:01;97172.56;;;16.39;100.00
28927;BME280;16038;47.692;9.400;2022-07-10T02:08:26;97176.13;;;16.36;100.00
28927;BME280;16038;47.692;9.400;2022-07-10T02:10:51;97187.19;;;16.36;100.00
28927;BME280;16038;47.692;9.400;2022-07-10T02:13:17;97178.47;;;16.27;100.00
28927;BME280;16038;47.692;9.400;2022-07-10T02:15:48;97178.88;;;16.25;100.00
28927;BME280;16038;47.692;9.400;2022-07-10T02:18:15;97183.22;;;16.26;100.00
28927;BME280;16038;47.692;9.400;2022-07-10T02:20:40;97175.69;;;16.16;100.00
28927;BME280;16038;47.692;9.400;2022-07-10T02:23:05;97186.75;;;16.12;100.00
28927;BME280;16038;47.692;9.400;2022-07-10T02:25:32;97182.81;;;16.20;100.00
28927;BME280;16038;47.692;9.400;2022-07-10T02:27:58;97182.78;;;16.10;100.00
28927;BME280;16038;47.692;9.400;2022-07-10T02:30:24;97190.66;;;16.04;100.00
28927;BME280;16038;47.692;9.400;2022-07-10T02:32:49;97185.53;;;16.02;100.00
28927;BME280;16038;47.692;9.400;2022-07-10T02:35:14;97194.59;;;15.96;100.00
28927;BME280;16038;47.692;9.400;2022-07-10T02:37:40;97191.03;;;15.95;100.00
28927;BME280;16038;47.692;9.400;2022-07-10T02:40:06;97189.13;;;16.14;100.00
28927;BME280;16038;47.692;9.400;2022-07-10T02:42:32;97189.94;;;16.25;100.00
28927;BME280;16038;47.692;9.400;2022-07-10T02:44:57;97182.41;;;16.15;100.00
28927;BME280;16038;47.692;9.400;2022-07-10T02:47:23;97185.97;;;16.15;100.00
28927;BME280;16038;47.692;9.400;2022-07-10T02:49:48;97182.38;;;16.00;100.00
28927;BME280;16038;47.692;9.400;2022-07-10T02:52:13;97186.72;;;16.01;100.00
28927;BME280;16038;47.692;9.400;2022-07-10T02:54:39;97186.72;;;16.05;100.00
28927;BME280;16038;47.692;9.400;2022-07-10T02:57:04;97185.56;;;16.17;100.00
28927;BME280;16038;47.692;9.400;2022-07-10T02:59:30;97184.78;;;16.23;100.00
28927;BME280;16038;47.692;9.400;2022-07-10T03:01:56;97193.50;;;16.47;100.00
28927;BME280;16038;47.692;9.400;2022-07-10T03:04:21;97197.09;;;16.62;100.00
28927;BME280;16038;47.692;9.400;2022-07-10T03:06:46;97201.41;;;16.49;100.00
28927;BME280;16038;47.692;9.400;2022-07-10T03:09:12;97204.94;;;16.35;100.00
28927;BME280;16038;47.692;9.400;2022-07-10T03:11:37;97202.59;;;16.33;100.00
28927;BME280;16038;47.692;9.400;2022-07-10T03:14:02;97203.78;;;16.39;100.00
28927;BME280;16038;47.692;9.400;2022-07-10T03:16:28;97208.13;;;16.48;100.00
28927;BME280;16038;47.692;9.400;2022-07-10T03:18:53;97217.22;;;16.62;100.00
28927;BME280;16038;47.692;9.400;2022-07-10T03:21:18;97213.25;;;16.71;100.00
28927;BME280;16038;47.692;9.400;2022-07-10T03:23:44;97215.66;;;16.76;100.00
28927;BME280;16038;47.692;9.400;2022-07-10T03:26:09;97216.84;;;16.78;100.00
28927;BME280;16038;47.692;9.400;2022-07-10T03:28:34;97214.09;;;16.75;100.00
28927;BME280;16038;47.692;9.400;2022-07-10T03:31:01;97214.88;;;16.75;100.00
28927;BME280;16038;47.692;9.400;2022-07-10T03:33:27;97215.28;;;16.85;100.00
28927;BME280;16038;47.692;9.400;2022-07-10T03:35:52;97210.53;;;16.96;100.00
28927;BME280;16038;47.692;9.400;2022-07-10T03:38:18;97221.19;;;16.97;100.00
28927;BME280;16038;47.692;9.400;2022-07-10T03:40:43;97227.53;;;17.02;100.00
28927;BME280;16038;47.692;9.400;2022-07-10T03:43:13;97222.78;;;17.09;100.00
28927;BME280;16038;47.692;9.400;2022-07-10T03:45:38;97221.59;;;16.99;100.00
28927;BME280;16038;47.692;9.400;2022-07-10T03:48:04;97220.41;;;16.90;100.00
28927;BME280;16038;47.692;9.400;2022-07-10T03:50:29;97228.28;;;16.55;100.00
28927;BME280;16038;47.692;9.400;2022-07-10T03:52:55;97222.75;;;16.66;100.00
28927;BME280;16038;47.692;9.400;2022-07-10T03:55:20;97223.16;;;16.75;100.00
28927;BME280;16038;47.692;9.400;2022-07-10T03:57:45;97223.53;;;16.67;100.00
28927;BME280;16038;47.692;9.400;2022-07-10T04:00:25;97216.84;;;16.60;100.00
28927;BME280;16038;47.692;9.400;2022-07-10T04:02:58;97219.22;;;16.66;100.00
28927;BME280;16038;47.692;9.400;2022-07-10T04:05:25;97216.84;;;16.75;100.00
28927;BME280;16038;47.692;9.400;2022-07-10T04:07:51;97216.47;;;16.76;100.00
28927;BME280;16038;47.692;9.400;2022-07-10T04:10:16;97209.63;;;16.13;100.00
28927;BME280;16038;47.692;9.400;2022-07-10T04:12:43;97217.91;;;16.02;100.00
28927;BME280;16038;47.692;9.400;2022-07-10T04:15:09;97218.69;;;16.10;100.00
28927;BME280;16038;47.692;9.400;2022-07-10T04:17:34;97219.16;;;16.26;100.00
28927;BME280;16038;47.692;9.400;2022-07-10T04:20:00;97207.31;;;16.33;100.00
28927;BME280;16038;47.692;9.400;2022-07-10T04:22:26;97204.91;;;16.28;100.00
28927;BME280;16038;47.692;9.400;2022-07-10T04:24:55;97209.66;;;16.27;100.00
28927;BME280;16038;47.692;9.400;2022-07-10T04:27:21;97218.19;;;15.79;100.00
28927;BME280;16038;47.692;9.400;2022-07-10T04:29:47;97213.47;;;15.76;100.00
28927;BME280;16038;47.692;9.400;2022-07-10T04:32:13;97217.31;;;15.64;100.00
28927;BME280;16038;47.692;9.400;2022-07-10T04:34:39;97220.78;;;15.46;100.00
28927;BME280;16038;47.692;9.400;2022-07-10T04:37:05;97223.63;;;15.61;100.00
28927;BME280;16038;47.692;9.400;2022-07-10T04:39:30;97231.22;;;15.78;100.00
28927;BME280;16038;47.692;9.400;2022-07-10T04:41:56;97229.75;;;16.10;100.00
28927;BME280;16038;47.692;9.400;2022-07-10T04:44:21;97234.16;;;16.36;100.00
28927;BME280;16038;47.692;9.400;2022-07-10T04:46:47;97230.66;;;16.53;100.00
28927;BME280;16038;47.692;9.400;2022-07-10T04:49:13;97228.69;;;16.61;100.00
28927;BME280;16038;47.692;9.400;2022-07-10T04:51:38;97230.28;;;16.73;100.00
28927;BME280;16038;47.692;9.400;2022-07-10T04:54:04;97221.19;;;16.79;100.00
28927;BME280;16038;47.692;9.400;2022-07-10T04:56:29;97223.97;;;16.90;100.00
28927;BME280;16038;47.692;9.400;2022-07-10T04:58:54;97214.09;;;16.93;100.00
28927;BME280;16038;47.692;9.400;2022-07-10T05:01:20;97225.94;;;16.75;100.00
28927;BME280;16038;47.692;9.400;2022-07-10T05:03:45;97227.50;;;16.58;100.00
28927;BME280;16038;47.692;9.400;2022-07-10T05:06:11;97231.06;;;16.73;100.00
28927;BME280;16038;47.692;9.400;2022-07-10T05:08:36;97229.50;;;16.94;100.00
28927;BME280;16038;47.692;9.400;2022-07-10T05:11:01;97234.66;;;17.03;100.00
28927;BME280;16038;47.692;9.400;2022-07-10T05:13:27;97240.56;;;17.23;100.00
28927;BME280;16038;47.692;9.400;2022-07-10T05:15:52;97231.88;;;17.06;100.00
28927;BME280;16038;47.692;9.400;2022-07-10T05:18:18;97233.84;;;17.16;100.00
28927;BME280;16038;47.692;9.400;2022-07-10T05:20:43;97232.22;;;17.41;100.00
28927;BME280;16038;47.692;9.400;2022-07-10T05:23:10;97233.31;;;17.79;100.00
28927;BME280;16038;47.692;9.400;2022-07-10T05:25:37;97227.78;;;17.72;100.00
28927;BME280;16038;47.692;9.400;2022-07-10T05:28:05;97231.78;;;17.53;100.00
28927;BME280;16038;47.692;9.400;2022-07-10T05:30:31;97240.75;;;18.04;100.00
28927;BME280;16038;47.692;9.400;2022-07-10T05:32:57;97238.53;;;18.44;100.00
28927;BME280;16038;47.692;9.400;2022-07-10T05:35:22;97239.91;;;18.77;100.00
28927;BME280;16038;47.692;9.400;2022-07-10T05:37:48;97246.09;;;18.99;95.59
28927;BME280;16038;47.692;9.400;2022-07-10T05:40:13;97243.19;;;19.17;91.42
28927;BME280;16038;47.692;9.400;2022-07-10T05:42:39;97241.63;;;19.16;91.25
28927;BME280;16038;47.692;9.400;2022-07-10T05:45:05;97250.00;;;19.09;91.95
28927;BME280;16038;47.692;9.400;2022-07-10T05:47:32;97251.78;;;18.81;90.33
28927;BME280;16038;47.692;9.400;2022-07-10T05:49:58;97252.47;;;18.37;94.21
28927;BME280;16038;47.692;9.400;2022-07-10T05:52:24;97261.56;;;18.37;93.01
28927;BME280;16038;47.692;9.400;2022-07-10T05:54:49;97260.25;;;18.60;93.08
28927;BME280;16038;47.692;9.400;2022-07-10T05:57:16;97259.44;;;17.85;95.52
28927;BME280;16038;47.692;9.400;2022-07-10T05:59:41;97250.03;;;17.39;97.37
28927;BME280;16038;47.692;9.400;2022-07-10T06:02:07;97255.97;;;17.38;100.00
28927;BME280;16038;47.692;9.400;2022-07-10T06:04:33;97257.84;;;17.77;98.94
28927;BME280;16038;47.692;9.400;2022-07-10T06:06:59;97253.09;;;17.92;98.13
28927;BME280;16038;47.692;9.400;2022-07-10T06:09:24;97257.81;;;17.91;97.66
28927;BME280;16038;47.692;9.400;2022-07-10T06:11:49;97254.81;;;19.01;91.00
28927;BME280;16038;47.692;9.400;2022-07-10T06:14:15;97255.63;;;19.85;84.78
28927;BME280;16038;47.692;9.400;2022-07-10T06:16:40;97253.09;;;18.62;87.92
28927;BME280;16038;47.692;9.400;2022-07-10T06:19:06;97253.91;;;20.25;81.94
28927;BME280;16038;47.692;9.400;2022-07-10T06:21:31;97251.59;;;19.06;83.85
28927;BME280;16038;47.692;9.400;2022-07-10T06:23:56;97251.00;;;18.81;87.12
28927;BME280;16038;47.692;9.400;2022-07-10T06:26:22;97257.06;;;19.97;81.50
28927;BME280;16038;47.692;9.400;2022-07-10T06:28:47;97246.31;;;20.88;76.40
28927;BME280;16038;47.692;9.400;2022-07-10T06:31:13;97249.03;;;21.38;72.29
28927;BME280;16038;47.692;9.400;2022-07-10T06:33:39;97256.13;;;22.07;70.39
28927;BME280;16038;47.692;9.400;2022-07-10T06:36:05;97251.34;;;23.46;66.28
28927;BME280;16038;47.692;9.400;2022-07-10T06:38:30;97251.75;;;24.61;57.81
28927;BME280;16038;47.692;9.400;2022-07-10T06:40:56;97261.25;;;26.74;50.21
28927;BME280;16038;47.692;9.400;2022-07-10T06:43:21;97253.81;;;26.26;50.36
28927;BME280;16038;47.692;9.400;2022-07-10T06:45:47;97254.16;;;27.00;46.01
28927;BME280;16038;47.692;9.400;2022-07-10T06:48:13;97259.25;;;26.74;47.73
28927;BME280;16038;47.692;9.400;2022-07-10T06:50:39;97256.94;;;25.49;48.65
28927;BME280;16038;47.692;9.400;2022-07-10T06:53:05;97264.97;;;22.42;58.63
28927;BME280;16038;47.692;9.400;2022-07-10T06:55:30;97256.13;;;21.19;67.27
28927;BME280;16038;47.692;9.400;2022-07-10T06:57:57;97259.00;;;21.83;65.28
28927;BME280;16038;47.692;9.400;2022-07-10T07:00:22;97258.44;;;20.16;71.51
28927;BME280;16038;47.692;9.400;2022-07-10T07:02:48;97259.31;;;19.71;74.65
28927;BME280;16038;47.692;9.400;2022-07-10T07:05:13;97262.28;;;19.91;76.21
28927;BME280;16038;47.692;9.400;2022-07-10T07:07:39;97253.28;;;20.14;75.03
28927;BME280;16038;47.692;9.400;2022-07-10T07:10:06;97256.69;;;20.56;73.26
28927;BME280;16038;47.692;9.400;2022-07-10T07:12:32;97257.34;;;21.18;69.65
28927;BME280;16038;47.692;9.400;2022-07-10T07:14:57;97252.97;;;21.17;68.64
28927;BME280;16038;47.692;9.400;2022-07-10T07:17:22;97263.06;;;19.57;74.67
28927;BME280;16038;47.692;9.400;2022-07-10T07:19:51;97258.31;;;19.13;75.73
28927;BME280;16038;47.692;9.400;2022-07-10T07:22:36;97254.38;;;20.51;68.92
28927;BME280;16038;47.692;9.400;2022-07-10T07:25:20;97259.34;;;19.67;72.88
28927;BME280;16038;47.692;9.400;2022-07-10T07:27:46;97258.44;;;18.98;76.27
28927;BME280;16038;47.692;9.400;2022-07-10T07:30:13;97268.75;;;19.43;78.08
28927;BME280;16038;47.692;9.400;2022-07-10T07:32:43;97268.72;;;20.19;75.23
28927;BME280;16038;47.692;9.400;2022-07-10T07:35:10;97267.16;;;19.83;73.46
28927;BME280;16038;47.692;9.400;2022-07-10T07:37:47;97261.03;;;19.20;77.24
28927;BME280;16038;47.692;9.400;2022-07-10T07:40:15;97267.34;;;19.62;76.99
28927;BME280;16038;47.692;9.400;2022-07-10T07:42:41;97259.44;;;19.60;75.36
28927;BME280;16038;47.692;9.400;2022-07-10T07:45:07;97274.19;;;20.57;72.68
28927;BME280;16038;47.692;9.400;2022-07-10T07:47:47;97270.66;;;21.31;66.14
28927;BME280;16038;47.692;9.400;2022-07-10T07:50:14;97273.81;;;21.56;64.57
28927;BME280;16038;47.692;9.400;2022-07-10T07:52:40;97272.72;;;21.74;64.43
28927;BME280;16038;47.692;9.400;2022-07-10T07:55:06;97274.72;;;22.13;63.47
28927;BME280;16038;47.692;9.400;2022-07-10T07:57:32;97278.50;;;22.43;61.30
28927;BME280;16038;47.692;9.400;2022-07-10T08:00:00;97279.63;;;22.66;59.83
28927;BME280;16038;47.692;9.400;2022-07-10T08:02:26;97270.47;;;22.82;59.48
28927;BME280;16038;47.692;9.400;2022-07-10T08:04:51;97263.72;;;23.16;57.23
28927;BME280;16038;47.692;9.400;2022-07-10T08:07:16;97272.75;;;22.50;59.36
28927;BME280;16038;47.692;9.400;2022-07-10T08:09:42;97275.22;;;22.48;60.93
28927;BME280;16038;47.692;9.400;2022-07-10T08:12:09;97273.97;;;22.86;58.72
28927;BME280;16038;47.692;9.400;2022-07-10T08:14:35;97269.56;;;22.68;58.78
28927;BME280;16038;47.692;9.400;2022-07-10T08:17:01;97269.78;;;22.41;59.31
28927;BME280;16038;47.692;9.400;2022-07-10T08:19:26;97263.41;;;22.21;61.05
28927;BME280;16038;47.692;9.400;2022-07-10T08:21:52;97264.94;;;20.33;66.99
28927;BME280;16038;47.692;9.400;2022-07-10T08:24:17;97267.72;;;20.67;69.61
28927;BME280;16038;47.692;9.400;2022-07-10T08:26:44;97262.06;;;20.40;69.02
28927;BME280;16038;47.692;9.400;2022-07-10T08:29:10;97268.53;;;21.38;66.21
28927;BME280;16038;47.692;9.400;2022-07-10T08:31:35;97262.97;;;22.79;59.37
28927;BME280;16038;47.692;9.400;2022-07-10T08:34:01;97264.56;;;23.29;56.29
28927;BME280;16038;47.692;9.400;2022-07-10T08:36:26;97263.25;;;23.17;56.63
28927;BME280;16038;47.692;9.400;2022-07-10T08:38:52;97256.34;;;24.94;51.59
28927;BME280;16038;47.692;9.400;2022-07-10T08:41:24;97253.63;;;25.64;49.56
28927;BME280;16038;47.692;9.400;2022-07-10T08:43:50;97249.22;;;26.20;47.18
28927;BME280;16038;47.692;9.400;2022-07-10T08:46:17;97255.75;;;27.01;45.33
28927;BME280;16038;47.692;9.400;2022-07-10T08:48:47;97253.94;;;26.76;44.97
28927;BME280;16038;47.692;9.400;2022-07-10T08:51:18;97254.06;;;25.14;48.98
28927;BME280;16038;47.692;9.400;2022-07-10T08:53:47;97248.22;;;26.04;46.72
28927;BME280;16038;47.692;9.400;2022-07-10T08:56:15;97249.91;;;25.67;46.80
28927;BME280;16038;47.692;9.400;2022-07-10T08:58:40;97255.44;;;24.71;49.64
28927;BME280;16038;47.692;9.400;2022-07-10T09:01:07;97251.97;;;24.12;51.98
28927;BME280;16038;47.692;9.400;2022-07-10T09:03:32;97251.16;;;23.99;51.72
28927;BME280;16038;47.692;9.400;2022-07-10T09:05:58;97251.44;;;24.17;52.54
28927;BME280;16038;47.692;9.400;2022-07-10T09:08:28;97254.28;;;23.88;52.07
28927;BME280;16038;47.692;9.400;2022-07-10T09:11:14;97252.63;;;23.74;53.24
28927;BME280;16038;47.692;9.400;2022-07-10T09:13:53;97256.44;;;23.35;54.38
28927;BME280;16038;47.692;9.400;2022-07-10T09:16:29;97257.06;;;23.88;51.62
28927;BME280;16038;47.692;9.400;2022-07-10T09:18:55;97258.78;;;25.05;49.82
28927;BME280;16038;47.692;9.400;2022-07-10T09:21:22;97262.38;;;24.54;51.14
28927;BME280;16038;47.692;9.400;2022-07-10T09:23:47;97261.34;;;22.61;55.30
28927;BME280;16038;47.692;9.400;2022-07-10T09:26:14;97263.91;;;22.15;57.94
28927;BME280;16038;47.692;9.400;2022-07-10T09:28:39;97263.94;;;22.36;57.31
28927;BME280;16038;47.692;9.400;2022-07-10T09:31:04;97258.88;;;22.47;57.81
28927;BME280;16038;47.692;9.400;2022-07-10T09:33:31;97257.31;;;23.48;56.13
28927;BME280;16038;47.692;9.400;2022-07-10T09:36:06;97253.03;;;23.89;54.68
28927;BME280;16038;47.692;9.400;2022-07-10T09:41:13;97256.16;;;24.33;49.73
28927;BME280;16038;47.692;9.400;2022-07-10T09:43:44;97260.56;;;24.05;50.92
28927;BME280;16038;47.692;9.400;2022-07-10T09:46:10;97254.00;;;23.20;51.83
28927;BME280;16038;47.692;9.400;2022-07-10T09:48:36;97259.13;;;22.73;56.72
28927;BME280;16038;47.692;9.400;2022-07-10T09:51:02;97257.13;;;22.89;57.54
28927;BME280;16038;47.692;9.400;2022-07-10T09:53:27;97253.50;;;23.25;57.16
28927;BME280;16038;47.692;9.400;2022-07-10T09:55:54;97248.94;;;23.48;55.80
28927;BME280;16038;47.692;9.400;2022-07-10T09:58:26;97238.34;;;23.56;55.25
28927;BME280;16038;47.692;9.400;2022-07-10T10:00:57;97236.31;;;23.56;55.96
28927;BME280;16038;47.692;9.400;2022-07-10T10:03:24;97236.19;;;23.31;56.71
28927;BME280;16038;47.692;9.400;2022-07-10T10:05:53;97227.25;;;23.52;54.74
28927;BME280;16038;47.692;9.400;2022-07-10T10:08:22;97229.00;;;23.46;53.69
28927;BME280;16038;47.692;9.400;2022-07-10T10:10:50;97224.97;;;23.76;52.89
28927;BME280;16038;47.692;9.400;2022-07-10T10:13:21;97220.41;;;24.12;52.20
28927;BME280;16038;47.692;9.400;2022-07-10T10:15:48;97218.63;;;23.46;54.85
28927;BME280;16038;47.692;9.400;2022-07-10T10:18:21;97218.72;;;24.01;55.03
28927;BME280;16038;47.692;9.400;2022-07-10T10:20:48;97216.66;;;23.60;55.95
28927;BME280;16038;47.692;9.400;2022-07-10T10:23:18;97228.75;;;23.40;55.71
28927;BME280;16038;47.692;9.400;2022-07-10T10:25:48;97231.22;;;22.89;56.66
28927;BME280;16038;47.692;9.400;2022-07-10T10:28:16;97221.00;;;22.99;57.41
28927;BME280;16038;47.692;9.400;2022-07-10T10:30:45;97222.78;;;23.09;57.15
28927;BME280;16038;47.692;9.400;2022-07-10T10:36:09;97227.94;;;23.11;56.30
28927;BME280;16038;47.692;9.400;2022-07-10T10:41:30;97219.88;;;22.27;59.49
28927;BME280;16038;47.692;9.400;2022-07-10T10:49:18;97222.59;;;21.70;63.39
28927;BME280;16038;47.692;9.400;2022-07-10T10:51:57;97221.97;;;21.63;63.06
28927;BME280;16038;47.692;9.400;2022-07-10T10:54:23;97215.50;;;21.66;62.41
28927;BME280;16038;47.692;9.400;2022-07-10T10:57:14;97222.66;;;21.47;62.64
28927;BME280;16038;47.692;9.400;2022-07-10T11:02:31;97215.09;;;21.67;61.34
28927;BME280;16038;47.692;9.400;2022-07-10T11:07:52;97210.81;;;21.39;62.54
28927;BME280;16038;47.692;9.400;2022-07-10T11:10:31;97202.03;;;21.41;64.30
28927;BME280;16038;47.692;9.400;2022-07-10T11:13:11;97206.84;;;21.60;63.06
28927;BME280;16038;47.692;9.400;2022-07-10T11:15:38;97205.59;;;21.85;62.44
28927;BME280;16038;47.692;9.400;2022-07-10T11:18:05;97202.34;;;22.06;61.67
28927;BME280;16038;47.692;9.400;2022-07-10T11:20:51;97206.13;;;22.52;58.35
28927;BME280;16038;47.692;9.400;2022-07-10T11:23:37;97208.28;;;23.14;58.21
28927;BME280;16038;47.692;9.400;2022-07-10T11:26:10;97200.59;;;23.18;56.49
28927;BME280;16038;47.692;9.400;2022-07-10T11:28:50;97198.81;;;22.91;57.62
28927;BME280;16038;47.692;9.400;2022-07-10T11:31:18;97193.16;;;23.12;57.07
28927;BME280;16038;47.692;9.400;2022-07-10T11:33:45;97187.84;;;22.84;58.40
28927;BME280;16038;47.692;9.400;2022-07-10T11:36:18;97193.16;;;22.95;57.46
28927;BME280;16038;47.692;9.400;2022-07-10T11:38:45;97184.06;;;23.24;57.37
28927;BME280;16038;47.692;9.400;2022-07-10T11:41:18;97187.47;;;23.61;53.41
28927;BME280;16038;47.692;9.400;2022-07-10T11:43:55;97177.66;;;23.69;54.38
28927;BME280;16038;47.692;9.400;2022-07-10T11:46:23;97178.78;;;23.42;54.29
28927;BME280;16038;47.692;9.400;2022-07-10T11:48:50;97180.19;;;23.05;55.62
28927;BME280;16038;47.692;9.400;2022-07-10T11:51:35;97176.41;;;23.12;56.74
28927;BME280;16038;47.692;9.400;2022-07-10T11:54:15;97170.56;;;22.73;59.49
28927;BME280;16038;47.692;9.400;2022-07-10T11:56:51;97184.53;;;22.57;58.20
28927;BME280;16038;47.692;9.400;2022-07-10T11:59:18;97182.94;;;22.19;59.08
28927;BME280;16038;47.692;9.400;2022-07-10T12:01:47;97175.22;;;22.27;59.34
28927;BME280;16038;47.692;9.400;2022-07-10T12:04:14;97181.34;;;22.18;60.45
28927;BME280;16038;47.692;9.400;2022-07-10T12:06:45;97175.69;;;21.85;60.76
28927;BME280;16038;47.692;9.400;2022-07-10T12:09:13;97173.59;;;22.09;60.56
28927;BME280;16038;47.692;9.400;2022-07-10T12:11:39;97173.47;;;21.96;60.83
28927;BME280;16038;47.692;9.400;2022-07-10T12:14:15;97168.88;;;22.06;61.25
28927;BME280;16038;47.692;9.400;2022-07-10T12:16:42;97163.13;;;22.83;56.48
28927;BME280;16038;47.692;9.400;2022-07-10T12:19:12;97168.31;;;23.46;54.80
28927;BME280;16038;47.692;9.400;2022-07-10T12:21:39;97166.53;;;22.58;56.66
28927;BME280;16038;47.692;9.400;2022-07-10T12:24:06;97167.69;;;22.77;57.75
28927;BME280;16038;47.692;9.400;2022-07-10T12:26:36;97163.31;;;22.43;56.93
28927;BME280;16038;47.692;9.400;2022-07-10T12:29:03;97162.06;;;22.07;59.11
28927;BME280;16038;47.692;9.400;2022-07-10T12:31:31;97166.84;;;21.70;59.56
28927;BME280;16038;47.692;9.400;2022-07-10T12:34:04;97157.06;;;22.19;58.69
28927;BME280;16038;47.692;9.400;2022-07-10T12:39:11;97161.28;;;22.43;56.93
28927;BME280;16038;47.692;9.400;2022-07-10T12:41:59;97159.31;;;22.60;55.48
28927;BME280;16038;47.692;9.400;2022-07-10T12:44:38;97151.34;;;22.91;55.07
28927;BME280;16038;47.692;9.400;2022-07-10T12:47:04;97160.69;;;23.01;53.65
28927;BME280;16038;47.692;9.400;2022-07-10T12:52:42;97151.00;;;23.06;53.15
28927;BME280;16038;47.692;9.400;2022-07-10T13:00:29;97155.03;;;23.63;54.15
28927;BME280;16038;47.692;9.400;2022-07-10T13:03:04;97147.44;;;23.64;52.95
28927;BME280;16038;47.692;9.400;2022-07-10T13:05:40;97153.53;;;23.46;52.27
28927;BME280;16038;47.692;9.400;2022-07-10T13:08:14;97150.91;;;23.39;51.49
28927;BME280;16038;47.692;9.400;2022-07-10T13:10:43;97146.84;;;23.98;50.23
28927;BME280;16038;47.692;9.400;2022-07-10T13:13:09;97149.84;;;23.91;50.60
28927;BME280;16038;47.692;9.400;2022-07-10T13:15:35;97149.81;;;24.08;49.58
28927;BME280;16038;47.692;9.400;2022-07-10T13:18:30;97149.72;;;23.82;49.48
28927;BME280;16038;47.692;9.400;2022-07-10T13:20:57;97141.56;;;23.88;50.37
28927;BME280;16038;47.692;9.400;2022-07-10T13:23:23;97138.81;;;24.00;50.35
28927;BME280;16038;47.692;9.400;2022-07-10T13:25:53;97133.13;;;24.55;50.68
28927;BME280;16038;47.692;9.400;2022-07-10T13:28:19;97131.31;;;24.10;49.29